Time,TemperatureF,DewpointF,PressureIn,WindDirection,WindDirectionDegrees,WindSpeedMPH,WindSpeedGustMPH,Humidity,HourlyPrecipIn,Conditions,Clouds,dailyrainin,SoftwareType,DateUTC
2013-07-12 00:00:00,77.9,69.7,29.53,South,169,3.0,3.0,76,0.00,,,0.00,Wunderground v.1.15,2013-07-12 05:00:00,
2013-07-12 00:10:00,77.5,70.1,29.52,SSE,156,3.0,3.0,78,0.00,,,0.00,Wunderground v.1.15,2013-07-12 05:10:00,
2013-07-12 00:15:00,77.4,70.0,29.52,SE,134,3.0,6.0,78,0.00,,,0.00,Wunderground v.1.15,2013-07-12 05:15:00,
2013-07-12 00:20:00,77.2,69.8,29.52,SSE,160,3.0,3.0,78,0.00,,,0.00,Wunderground v.1.15,2013-07-12 05:20:00,
2013-07-12 00:25:00,77.1,70.1,29.52,SSE,147,3.0,3.0,79,0.00,,,0.00,Wunderground v.1.15,2013-07-12 05:25:00,
2013-07-12 00:30:00,76.8,69.8,29.53,SSE,150,2.0,2.0,79,0.00,,,0.00,Wunderground v.1.15,2013-07-12 05:30:00,
2013-07-12 00:40:00,76.4,69.8,29.52,SSE,168,1.0,1.0,80,0.00,,,0.00,Wunderground v.1.15,2013-07-12 05:40:00,
2013-07-12 00:45:00,76.1,69.8,29.53,SSE,167,1.0,5.0,81,0.00,,,0.00,Wunderground v.1.15,2013-07-12 05:45:00,
2013-07-12 00:50:00,76.0,69.7,29.53,SE,132,1.0,1.0,81,0.00,,,0.00,Wunderground v.1.15,2013-07-12 05:50:00,
2013-07-12 00:55:00,75.8,69.6,29.53,SSE,150,1.0,5.0,81,0.00,,,0.00,Wunderground v.1.15,2013-07-12 05:55:00,
2013-07-12 01:00:00,75.6,69.7,29.52,SE,133,1.0,1.0,82,0.00,,,0.00,Wunderground v.1.15,2013-07-12 06:00:00,
2013-07-12 01:10:00,75.5,69.6,29.52,SE,138,4.0,4.0,82,0.00,,,0.00,Wunderground v.1.15,2013-07-12 06:10:00,
2013-07-12 01:15:00,75.4,69.5,29.53,SSE,148,4.0,4.0,82,0.00,,,0.00,Wunderground v.1.15,2013-07-12 06:15:00,
2013-07-12 01:20:00,75.3,69.4,29.53,South,172,4.0,5.0,82,0.00,,,0.00,Wunderground v.1.15,2013-07-12 06:20:00,
2013-07-12 01:25:00,75.2,69.3,29.53,South,169,4.0,6.0,82,0.00,,,0.00,Wunderground v.1.15,2013-07-12 06:25:00,
2013-07-12 01:35:00,75.0,69.5,29.53,SE,142,3.0,6.0,83,0.00,,,0.00,Wunderground v.1.15,2013-07-12 06:35:00,
2013-07-12 01:40:00,74.9,69.4,29.53,SE,144,3.0,3.0,83,0.00,,,0.00,Wunderground v.1.15,2013-07-12 06:40:00,
2013-07-12 01:45:00,74.9,69.4,29.53,SSE,153,3.0,4.0,83,0.00,,,0.00,Wunderground v.1.15,2013-07-12 06:45:00,
2013-07-12 01:50:00,74.9,69.4,29.53,SSE,157,2.0,2.0,83,0.00,,,0.00,Wunderground v.1.15,2013-07-12 06:50:00,
2013-07-12 01:55:00,74.9,69.4,29.53,SE,134,2.0,3.0,83,0.00,,,0.00,Wunderground v.1.15,2013-07-12 06:55:00,
2013-07-12 02:00:00,74.9,69.4,29.53,SSE,153,2.0,2.0,83,0.00,,,0.00,Wunderground v.1.15,2013-07-12 07:00:00,
2013-07-12 02:10:00,74.9,69.4,29.53,SE,143,2.0,2.0,83,0.00,,,0.00,Wunderground v.1.15,2013-07-12 07:10:00,
2013-07-12 02:20:00,75.1,69.6,29.52,SE,146,3.0,5.0,83,0.00,,,0.00,Wunderground v.1.15,2013-07-12 07:20:00,
2013-07-12 02:25:00,75.3,69.4,29.52,SSE,159,4.0,5.0,82,0.00,,,0.00,Wunderground v.1.15,2013-07-12 07:25:00,
2013-07-12 02:30:00,75.7,69.5,29.51,SE,126,5.0,7.0,81,0.00,,,0.00,Wunderground v.1.15,2013-07-12 07:30:00,
2013-07-12 02:40:00,76.2,69.6,29.52,SSE,155,4.0,4.0,80,0.00,,,0.00,Wunderground v.1.15,2013-07-12 07:40:00,
2013-07-12 02:45:00,76.2,69.6,29.52,SSE,159,3.0,4.0,80,0.00,,,0.00,Wunderground v.1.15,2013-07-12 07:45:00,
2013-07-12 02:50:00,76.1,69.5,29.52,ESE,121,2.0,2.0,80,0.00,,,0.00,Wunderground v.1.15,2013-07-12 07:50:00,
2013-07-12 02:55:00,76.0,69.4,29.52,SE,134,1.0,2.0,80,0.00,,,0.00,Wunderground v.1.15,2013-07-12 07:55:00,
2013-07-12 03:00:00,75.9,69.6,29.52,SE,132,1.0,1.0,81,0.00,,,0.00,Wunderground v.1.15,2013-07-12 08:00:00,
2013-07-12 03:10:00,75.7,69.5,29.52,South,183,2.0,3.0,81,0.00,,,0.00,Wunderground v.1.15,2013-07-12 08:10:00,
2013-07-12 03:15:00,75.6,69.4,29.52,SSW,193,2.0,3.0,81,0.00,,,0.00,Wunderground v.1.15,2013-07-12 08:15:00,
2013-07-12 03:20:00,75.5,69.6,29.52,SE,126,2.0,2.0,82,0.00,,,0.00,Wunderground v.1.15,2013-07-12 08:20:00,
2013-07-12 03:25:00,75.5,69.6,29.52,SE,142,3.0,3.0,82,0.00,,,0.00,Wunderground v.1.15,2013-07-12 08:25:00,
2013-07-12 03:30:00,75.4,69.5,29.52,SE,132,3.0,7.0,82,0.00,,,0.00,Wunderground v.1.15,2013-07-12 08:30:00,
2013-07-12 10:20:00,81.3,70.6,29.51,SW,226,3.0,3.0,70,0.00,,,0.00,Wunderground v.1.15,2013-07-12 15:20:00,
2013-07-12 10:25:00,81.3,71.4,29.50,SW,222,2.0,3.0,72,0.00,,,0.00,Wunderground v.1.15,2013-07-12 15:25:00,
2013-07-12 10:30:00,81.6,70.4,29.50,WSW,238,2.0,3.0,69,0.00,,,0.00,Wunderground v.1.15,2013-07-12 15:30:00,
2013-07-12 10:35:00,82.0,70.4,29.51,SSW,209,2.0,3.0,68,0.00,,,0.00,Wunderground v.1.15,2013-07-12 15:35:00,
2013-07-12 10:45:00,83.0,71.3,29.52,SW,225,2.0,2.0,68,0.00,,,0.00,Wunderground v.1.15,2013-07-12 15:45:00,
2013-07-12 10:50:00,83.0,70.5,29.52,SW,214,4.0,11.0,66,0.00,,,0.00,Wunderground v.1.15,2013-07-12 15:50:00,
2013-07-12 10:55:00,82.7,70.6,29.52,SW,230,5.0,11.0,67,0.00,,,0.00,Wunderground v.1.15,2013-07-12 15:55:00,
2013-07-12 11:00:00,82.7,70.6,29.52,WSW,238,4.0,4.0,67,0.00,,,0.00,Wunderground v.1.15,2013-07-12 16:00:00,
2013-07-12 11:10:00,82.0,70.0,29.51,West,268,2.0,3.0,67,0.00,,,0.00,Wunderground v.1.15,2013-07-12 16:10:00,
2013-07-12 11:15:00,81.5,70.3,29.51,WSW,240,2.0,3.0,69,0.00,,,0.00,Wunderground v.1.15,2013-07-12 16:15:00,
2013-07-12 11:20:00,81.2,70.9,29.50,WSW,240,1.0,1.0,71,0.00,,,0.00,Wunderground v.1.15,2013-07-12 16:20:00,
2013-07-12 11:25:00,80.9,70.2,29.52,WSW,252,1.0,1.0,70,0.00,,,0.00,Wunderground v.1.15,2013-07-12 16:25:00,
2013-07-12 11:35:00,80.7,71.2,29.52,WSW,254,1.0,3.0,73,0.00,,,0.00,Wunderground v.1.15,2013-07-12 16:35:00,
2013-07-12 11:40:00,80.5,69.8,29.52,West,267,2.0,2.0,70,0.00,,,0.00,Wunderground v.1.15,2013-07-12 16:40:00,
2013-07-12 11:45:00,80.3,70.9,29.52,NW,304,1.0,2.0,73,0.00,,,0.00,Wunderground v.1.15,2013-07-12 16:45:00,
2013-07-12 20:30:00,84.6,72.0,29.64,NNE,21,1.0,1.0,66,0.00,,,0.00,Wunderground v.1.15,2013-07-13 01:30:00,
2013-07-12 20:35:00,83.8,71.7,29.64,NNE,13,0.0,2.0,67,0.00,,,0.00,Wunderground v.1.15,2013-07-13 01:35:00,
2013-07-12 20:40:00,83.1,71.4,29.64,NNE,13,0.0,2.0,68,0.00,,,0.00,Wunderground v.1.15,2013-07-13 01:40:00,
2013-07-12 20:50:00,81.7,71.4,29.64,NNE,13,0.0,0.0,71,0.00,,,0.00,Wunderground v.1.15,2013-07-13 01:50:00,
2013-07-12 20:55:00,81.1,71.2,29.64,NNE,13,0.0,1.0,72,0.00,,,0.00,Wunderground v.1.15,2013-07-13 01:55:00,
2013-07-12 21:00:00,80.5,71.0,29.64,NNE,13,0.0,0.0,73,0.00,,,0.00,Wunderground v.1.15,2013-07-13 02:00:00,
2013-07-12 21:10:00,79.4,70.8,29.65,NNE,13,0.0,0.0,75,0.00,,,0.00,Wunderground v.1.15,2013-07-13 02:10:00,
2013-07-12 21:15:00,78.9,70.7,29.65,NNE,13,0.0,0.0,76,0.00,,,0.00,Wunderground v.1.15,2013-07-13 02:15:00,
2013-07-12 21:20:00,78.6,70.8,29.65,NNE,13,0.0,0.0,77,0.00,,,0.00,Wunderground v.1.15,2013-07-13 02:20:00,
2013-07-12 21:30:00,77.7,70.3,29.65,NNE,13,0.0,0.0,78,0.00,,,0.00,Wunderground v.1.15,2013-07-13 02:30:00,
2013-07-12 21:35:00,77.4,70.4,29.65,NNE,13,0.0,0.0,79,0.00,,,0.00,Wunderground v.1.15,2013-07-13 02:35:00,
2013-07-12 21:50:00,76.3,70.8,29.65,NNE,13,0.0,0.0,83,0.00,,,0.00,Wunderground v.1.15,2013-07-13 02:50:00,
2013-07-12 21:55:00,76.0,70.5,29.65,NNE,13,0.0,0.0,83,0.00,,,0.00,Wunderground v.1.15,2013-07-13 02:55:00,
2013-07-12 22:00:00,75.6,70.4,29.66,NNE,13,0.0,0.0,84,0.00,,,0.00,Wunderground v.1.15,2013-07-13 03:00:00,
2013-07-12 22:10:00,75.0,70.2,29.66,NNE,13,0.0,0.0,85,0.00,,,0.00,Wunderground v.1.15,2013-07-13 03:10:00,
2013-07-12 22:15:00,74.7,70.2,29.66,NNE,13,0.0,0.0,86,0.00,,,0.00,Wunderground v.1.15,2013-07-13 03:15:00,
2013-07-12 22:20:00,74.4,69.9,29.67,NNE,13,0.0,0.0,86,0.00,,,0.00,Wunderground v.1.15,2013-07-13 03:20:00,
2013-07-12 22:25:00,74.2,70.1,29.67,NNE,13,0.0,0.0,87,0.00,,,0.00,Wunderground v.1.15,2013-07-13 03:25:00,
2013-07-12 22:35:00,73.6,69.5,29.67,NNE,13,0.0,0.0,87,0.00,,,0.00,Wunderground v.1.15,2013-07-13 03:35:00,
2013-07-12 22:45:00,73.1,68.7,29.67,NNE,13,0.0,0.0,86,0.00,,,0.00,Wunderground v.1.15,2013-07-13 03:45:00,
2013-07-12 22:50:00,72.9,68.5,29.68,NNE,13,0.0,0.0,86,0.00,,,0.00,Wunderground v.1.15,2013-07-13 03:50:00,
2013-07-12 22:55:00,72.8,68.7,29.68,NNE,13,0.0,0.0,87,0.00,,,0.00,Wunderground v.1.15,2013-07-13 03:55:00,
2013-07-12 23:00:00,72.6,68.5,29.68,NNE,13,0.0,0.0,87,0.00,,,0.00,Wunderground v.1.15,2013-07-13 04:00:00,
2013-07-12 23:05:00,72.4,68.3,29.68,NNE,13,0.0,0.0,87,0.00,,,0.00,Wunderground v.1.15,2013-07-13 04:05:00,
2013-07-12 23:10:00,72.2,68.1,29.68,NNE,13,0.0,0.0,87,0.00,,,0.00,Wunderground v.1.15,2013-07-13 04:10:00,
2013-07-12 23:15:00,72.0,67.9,29.68,NNE,13,0.0,0.0,87,0.00,,,0.00,Wunderground v.1.15,2013-07-13 04:15:00,
2013-07-12 23:20:00,71.8,68.1,29.68,NNE,13,0.0,0.0,88,0.00,,,0.00,Wunderground v.1.15,2013-07-13 04:20:00,
2013-07-12 23:25:00,71.6,67.9,29.68,NNE,13,0.0,0.0,88,0.00,,,0.00,Wunderground v.1.15,2013-07-13 04:25:00,
2013-07-12 23:30:00,71.3,67.6,29.69,NNE,13,0.0,0.0,88,0.00,,,0.00,Wunderground v.1.15,2013-07-13 04:30:00,
2013-07-12 23:35:00,71.3,67.9,29.69,NNE,13,0.0,0.0,89,0.00,,,0.00,Wunderground v.1.15,2013-07-13 04:35:00,
2013-07-12 23:45:00,70.9,67.5,29.69,NNE,13,0.0,0.0,89,0.00,,,0.00,Wunderground v.1.15,2013-07-13 04:45:00,
2013-07-12 23:50:00,70.7,67.3,29.69,NNE,13,0.0,0.0,89,0.00,,,0.00,Wunderground v.1.15,2013-07-13 04:50:00,
2013-07-12 23:55:00,70.6,67.5,29.70,NNE,13,0.0,0.0,90,0.00,,,0.00,Wunderground v.1.15,2013-07-13 04:55:00,